sensor_id;sensor_type;location;lat;lon;timestamp;pressure;altitude;pressure_sealevel;temperature;humidity
4836;BME280;66719;51.226;6.902;2023-05-21T00:00:20;100901.53;;;14.88;100.00
4836;BME280;66719;51.226;6.902;2023-05-21T00:02:46;100903.47;;;14.83;100.00
4836;BME280;66719;51.226;6.902;2023-05-21T00:05:13;100900.06;;;14.80;100.00
4836;BME280;66719;51.226;6.902;2023-05-21T00:07:42;100900.06;;;14.80;100.00
4836;BME280;66719;51.226;6.902;2023-05-21T00:10:09;100891.31;;;14.79;100.00
4836;BME280;66719;51.226;6.902;2023-05-21T00:12:36;100896.41;;;14.84;100.00
4836;BME280;66719;51.226;6.902;2023-05-21T00:15:03;100891.06;;;14.85;100.00
4836;BME280;66719;51.226;6.902;2023-05-21T00:17:29;100896.63;;;14.78;100.00
4836;BME280;66719;51.226;6.902;2023-05-21T00:19:56;100886.09;;;14.78;100.00
4836;BME280;66719;51.226;6.902;2023-05-21T00:22:22;100872.94;;;14.76;100.00
4836;BME280;66719;51.226;6.902;2023-05-21T00:24:49;100880.91;;;14.75;100.00
4836;BME280;66719;51.226;6.902;2023-05-21T00:27:16;100879.97;;;14.77;100.00
4836;BME280;66719;51.226;6.902;2023-05-21T00:29:42;100873.97;;;14.72;100.00
4836;BME280;66719;51.226;6.902;2023-05-21T00:32:10;100875.69;;;14.73;100.00
4836;BME280;66719;51.226;6.902;2023-05-21T00:34:37;100874.94;;;14.69;100.00
4836;BME280;66719;51.226;6.902;2023-05-21T00:37:03;100876.72;;;14.69;100.00
4836;BME280;66719;51.226;6.902;2023-05-21T00:39:30;100872.31;;;14.68;100.00
4836;BME280;66719;51.226;6.902;2023-05-21T00:41:56;100874.22;;;14.64;100.00
4836;BME280;66719;51.226;6.902;2023-05-21T00:44:23;100868.09;;;14.64;100.00
4836;BME280;66719;51.226;6.902;2023-05-21T00:46:51;100872.59;;;14.60;100.00
4836;BME280;66719;51.226;6.902;2023-05-21T00:49:21;100870.78;;;14.62;100.00
4836;BME280;66719;51.226;6.902;2023-05-21T00:51:48;100876.19;;;14.58;100.00
4836;BME280;66719;51.226;6.902;2023-05-21T00:54:14;100862.19;;;14.56;100.00
4836;BME280;66719;51.226;6.902;2023-05-21T00:56:41;100863.06;;;14.56;100.00
4836;BME280;66719;51.226;6.902;2023-05-21T00:59:08;100859.75;;;14.50;100.00
4836;BME280;66719;51.226;6.902;2023-05-21T01:01:34;100863.22;;;14.52;100.00
4836;BME280;66719;51.226;6.902;2023-05-21T01:04:02;100864.88;;;14.54;100.00
4836;BME280;66719;51.226;6.902;2023-05-21T01:06:29;100869.31;;;14.54;100.00
4836;BME280;66719;51.226;6.902;2023-05-21T01:09:00;100858.03;;;14.49;100.00
4836;BME280;66719;51.226;6.902;2023-05-21T01:11:37;100862.56;;;14.43;100.00
4836;BME280;66719;51.226;6.902;2023-05-21T01:14:05;100863.41;;;14.46;100.00
4836;BME280;66719;51.226;6.902;2023-05-21T01:16:39;100866.91;;;14.46;100.00
4836;BME280;66719;51.226;6.902;2023-05-21T01:19:09;100861.72;;;14.43;100.00
4836;BME280;66719;51.226;6.902;2023-05-21T01:21:44;100856.47;;;14.41;100.00
4836;BME280;66719;51.226;6.902;2023-05-21T01:24:13;100859.94;;;14.43;100.00
4836;BME280;66719;51.226;6.902;2023-05-21T01:26:40;100863.50;;;14.41;100.00
4836;BME280;66719;51.226;6.902;2023-05-21T01:29:08;100861.75;;;14.41;100.00
4836;BME280;66719;51.226;6.902;2023-05-21T01:32:19;100858.16;;;14.46;100.00
4836;BME280;66719;51.226;6.902;2023-05-21T01:34:58;100856.41;;;14.45;100.00
4836;BME280;66719;51.226;6.902;2023-05-21T01:37:48;100861.78;;;14.40;100.00
4836;BME280;66719;51.226;6.902;2023-05-21T01:40:22;100855.63;;;14.41;100.00
4836;BME280;66719;51.226;6.902;2023-05-21T01:42:51;100855.63;;;14.41;100.00
4836;BME280;66719;51.226;6.902;2023-05-21T01:45:18;100849.44;;;14.42;100.00
4836;BME280;66719;51.226;6.902;2023-05-21T01:47:48;100854.88;;;14.37;100.00
4836;BME280;66719;51.226;6.902;2023-05-21T01:50:17;100852.28;;;14.36;100.00
4836;BME280;66719;51.226;6.902;2023-05-21T01:52:52;100849.88;;;14.28;100.00
4836;BME280;66719;51.226;6.902;2023-05-21T01:55:19;100852.56;;;14.27;100.00
4836;BME280;66719;51.226;6.902;2023-05-21T01:57:51;100850.00;;;14.25;100.00
4836;BME280;66719;51.226;6.902;2023-05-21T02:00:20;100854.41;;;14.25;100.00
4836;BME280;66719;51.226;6.902;2023-05-21T02:02:47;100852.00;;;14.17;100.00
4836;BME280;66719;51.226;6.902;2023-05-21T02:05:14;100855.34;;;14.22;100.00
4836;BME280;66719;51.226;6.902;2023-05-21T02:07:41;100854.44;;;14.23;100.00
4836;BME280;66719;51.226;6.902;2023-05-21T02:10:09;100854.44;;;14.23;100.00
4836;BME280;66719;51.226;6.902;2023-05-21T02:12:36;100844.81;;;14.22;100.00
4836;BME280;66719;51.226;6.902;2023-05-21T02:15:03;100845.03;;;14.14;100.00
4836;BME280;66719;51.226;6.902;2023-05-21T02:17:31;100836.44;;;14.09;100.00
4836;BME280;66719;51.226;6.902;2023-05-21T02:19:59;100841.75;;;14.08;100.00
4836;BME280;66719;51.226;6.902;2023-05-21T02:22:40;100844.63;;;14.00;100.00
4836;BME280;66719;51.226;6.902;2023-05-21T02:25:08;100837.53;;;14.02;100.00
4836;BME280;66719;51.226;6.902;2023-05-21T02:27:35;100828.84;;;14.00;100.00
4836;BME280;66719;51.226;6.902;2023-05-21T02:30:03;100830.63;;;13.98;100.00
4836;BME280;66719;51.226;6.902;2023-05-21T02:32:31;100839.44;;;13.97;100.00
4836;BME280;66719;51.226;6.902;2023-05-21T02:34:58;100835.09;;;13.96;100.00
4836;BME280;66719;51.226;6.902;2023-05-21T02:37:25;100832.50;;;13.95;100.00
4836;BME280;66719;51.226;6.902;2023-05-21T02:39:55;100830.84;;;13.92;100.00
4836;BME280;66719;51.226;6.902;2023-05-21T02:42:21;100834.50;;;13.86;100.00
4836;BME280;66719;51.226;6.902;2023-05-21T02:44:49;100836.22;;;13.88;100.00
4836;BME280;66719;51.226;6.902;2023-05-21T02:47:17;100837.09;;;13.88;100.00
4836;BME280;66719;51.226;6.902;2023-05-21T02:49:44;100831.69;;;13.93;100.00
4836;BME280;66719;51.226;6.902;2023-05-21T02:52:11;100837.03;;;13.90;100.00
4836;BME280;66719;51.226;6.902;2023-05-21T02:54:38;100832.66;;;13.90;100.00
4836;BME280;66719;51.226;6.902;2023-05-21T02:57:04;100834.34;;;13.93;100.00
4836;BME280;66719;51.226;6.902;2023-05-21T02:59:31;100837.03;;;13.90;100.00
4836;BME280;66719;51.226;6.902;2023-05-21T03:01:57;100831.00;;;13.86;100.00
4836;BME280;66719;51.226;6.902;2023-05-21T03:04:24;100822.38;;;13.81;100.00
4836;BME280;66719;51.226;6.902;2023-05-21T03:06:54;100824.41;;;13.73;100.00
4836;BME280;66719;51.226;6.902;2023-05-21T03:09:21;100820.94;;;13.71;100.00
4836;BME280;66719;51.226;6.902;2023-05-21T03:11:48;100820.94;;;13.71;100.00
4836;BME280;66719;51.226;6.902;2023-05-21T03:14:15;100811.19;;;13.74;100.00
4836;BME280;66719;51.226;6.902;2023-05-21T03:16:42;100817.56;;;13.67;100.00
4836;BME280;66719;51.226;6.902;2023-05-21T03:19:09;100819.22;;;13.70;100.00
4836;BME280;66719;51.226;6.902;2023-05-21T03:21:36;100813.09;;;13.69;100.00
4836;BME280;66719;51.226;6.902;2023-05-21T03:24:04;100808.88;;;13.64;100.00
4836;BME280;66719;51.226;6.902;2023-05-21T03:26:31;100813.28;;;13.63;100.00
4836;BME280;66719;51.226;6.902;2023-05-21T03:28:57;100823.91;;;13.60;100.00
4836;BME280;66719;51.226;6.902;2023-05-21T03:31:24;100815.16;;;13.60;100.00
4836;BME280;66719;51.226;6.902;2023-05-21T03:33:51;100807.16;;;13.63;100.00
4836;BME280;66719;51.226;6.902;2023-05-21T03:36:19;100818.53;;;13.63;100.00
4836;BME280;66719;51.226;6.902;2023-05-21T03:38:46;100810.63;;;13.63;100.00
4836;BME280;66719;51.226;6.902;2023-05-21T03:41:12;100820.47;;;13.58;100.00
4836;BME280;66719;51.226;6.902;2023-05-21T03:43:39;100817.81;;;13.58;100.00
4836;BME280;66719;51.226;6.902;2023-05-21T03:46:05;100809.78;;;13.63;100.00
4836;BME280;66719;51.226;6.902;2023-05-21T03:48:32;100806.25;;;13.64;100.00
4836;BME280;66719;51.226;6.902;2023-05-21T03:50:58;100813.25;;;13.65;100.00
4836;BME280;66719;51.226;6.902;2023-05-21T03:53:25;100811.72;;;13.57;100.00
4836;BME280;66719;51.226;6.902;2023-05-21T03:55:52;100816.97;;;13.57;100.00
4836;BME280;66719;51.226;6.902;2023-05-21T03:58:21;100813.47;;;13.57;100.00
4836;BME280;66719;51.226;6.902;2023-05-21T04:00:47;100803.81;;;13.57;100.00
4836;BME280;66719;51.226;6.902;2023-05-21T04:03:14;100805.47;;;13.60;100.00
4836;BME280;66719;51.226;6.902;2023-05-21T04:05:41;100803.59;;;13.65;100.00
4836;BME280;66719;51.226;6.902;2023-05-21T04:08:08;100809.78;;;13.63;100.00
4836;BME280;66719;51.226;6.902;2023-05-21T04:10:34;100815.88;;;13.65;100.00
4836;BME280;66719;51.226;6.902;2023-05-21T04:13:01;100811.44;;;13.67;100.00
4836;BME280;66719;51.226;6.902;2023-05-21T04:15:28;100807.06;;;13.66;100.00
4836;BME280;66719;51.226;6.902;2023-05-21T04:17:54;100813.16;;;13.68;100.00
4836;BME280;66719;51.226;6.902;2023-05-21T04:20:22;100811.44;;;13.67;100.00
4836;BME280;66719;51.226;6.902;2023-05-21T04:22:48;100809.75;;;13.64;100.00
4836;BME280;66719;51.226;6.902;2023-05-21T04:25:15;100809.75;;;13.64;100.00
4836;BME280;66719;51.226;6.902;2023-05-21T04:27:42;100816.59;;;13.70;100.00
4836;BME280;66719;51.226;6.902;2023-05-21T04:30:09;100808.63;;;13.71;100.00
4836;BME280;66719;51.226;6.902;2023-05-21T04:32:36;100813.19;;;13.66;100.00
4836;BME280;66719;51.226;6.902;2023-05-21T04:35:04;100807.13;;;13.64;100.00
4836;BME280;66719;51.226;6.902;2023-05-21T04:37:30;100813.28;;;13.63;100.00
4836;BME280;66719;51.226;6.902;2023-05-21T04:40:00;100813.19;;;13.66;100.00
4836;BME280;66719;51.226;6.902;2023-05-21T04:42:27;100814.91;;;13.67;100.00
4836;BME280;66719;51.226;6.902;2023-05-21T04:44:55;100804.28;;;13.70;100.00
4836;BME280;66719;51.226;6.902;2023-05-21T04:47:24;100812.13;;;13.73;100.00
4836;BME280;66719;51.226;6.902;2023-05-21T04:49:51;100819.97;;;13.75;100.00
4836;BME280;66719;51.226;6.902;2023-05-21T04:52:18;100814.75;;;13.73;100.00
4836;BME280;66719;51.226;6.902;2023-05-21T04:54:45;100809.31;;;13.78;100.00
4836;BME280;66719;51.226;6.902;2023-05-21T04:57:13;100815.69;;;13.71;100.00
4836;BME280;66719;51.226;6.902;2023-05-21T04:59:39;100806.69;;;13.78;100.00
4836;BME280;66719;51.226;6.902;2023-05-21T05:02:06;100814.59;;;13.78;100.00
4836;BME280;66719;51.226;6.902;2023-05-21T05:04:33;100805.09;;;13.72;100.00
4836;BME280;66719;51.226;6.902;2023-05-21T05:06:59;100810.13;;;13.80;100.00
4836;BME280;66719;51.226;6.902;2023-05-21T05:09:26;100810.25;;;13.77;100.00
4836;BME280;66719;51.226;6.902;2023-05-21T05:11:53;100809.22;;;13.81;100.00
4836;BME280;66719;51.226;6.902;2023-05-21T05:14:19;100811.00;;;13.80;100.00
4836;BME280;66719;51.226;6.902;2023-05-21T05:16:46;100809.19;;;13.82;100.00
4836;BME280;66719;51.226;6.902;2023-05-21T05:19:15;100814.47;;;13.82;100.00
4836;BME280;66719;51.226;6.902;2023-05-21T05:21:42;100813.50;;;13.85;100.00
4836;BME280;66719;51.226;6.902;2023-05-21T05:24:08;100810.00;;;13.84;100.00
4836;BME280;66719;51.226;6.902;2023-05-21T05:26:35;100816.94;;;13.87;100.00
4836;BME280;66719;51.226;6.902;2023-05-21T05:29:01;100814.31;;;13.87;100.00
4836;BME280;66719;51.226;6.902;2023-05-21T05:31:28;100808.25;;;13.85;100.00
4836;BME280;66719;51.226;6.902;2023-05-21T05:33:54;100815.03;;;13.92;100.00
4836;BME280;66719;51.226;6.902;2023-05-21T05:36:21;100808.81;;;13.95;100.00
4836;BME280;66719;51.226;6.902;2023-05-21T05:38:47;100807.09;;;13.94;100.00
4836;BME280;66719;51.226;6.902;2023-05-21T05:41:14;100820.09;;;13.98;100.00
4836;BME280;66719;51.226;6.902;2023-05-21T05:43:40;100811.34;;;13.98;100.00
4836;BME280;66719;51.226;6.902;2023-05-21T05:46:07;100812.19;;;14.00;100.00
4836;BME280;66719;51.226;6.902;2023-05-21T05:48:34;100811.22;;;14.02;100.00
4836;BME280;66719;51.226;6.902;2023-05-21T05:51:00;100804.97;;;14.05;100.00
4836;BME280;66719;51.226;6.902;2023-05-21T05:53:27;100807.78;;;14.00;100.00
4836;BME280;66719;51.226;6.902;2023-05-21T05:55:53;100802.56;;;13.99;100.00
4836;BME280;66719;51.226;6.902;2023-05-21T05:58:20;100804.06;;;14.06;100.00
4836;BME280;66719;51.226;6.902;2023-05-21T06:00:46;100806.69;;;14.06;100.00
4836;BME280;66719;51.226;6.902;2023-05-21T06:03:13;100804.03;;;14.07;100.00
4836;BME280;66719;51.226;6.902;2023-05-21T06:05:40;100801.44;;;14.06;100.00
4836;BME280;66719;51.226;6.902;2023-05-21T06:08:06;100805.78;;;14.07;100.00
4836;BME280;66719;51.226;6.902;2023-05-21T06:10:33;100800.50;;;14.07;100.00
4836;BME280;66719;51.226;6.902;2023-05-21T06:12:59;100804.72;;;14.12;100.00
4836;BME280;66719;51.226;6.902;2023-05-21T06:15:26;100800.31;;;14.13;100.00
4836;BME280;66719;51.226;6.902;2023-05-21T06:17:52;100799.41;;;14.14;100.00
4836;BME280;66719;51.226;6.902;2023-05-21T06:20:19;100790.53;;;14.18;100.00
4836;BME280;66719;51.226;6.902;2023-05-21T06:22:46;100795.72;;;14.20;100.00
4836;BME280;66719;51.226;6.902;2023-05-21T06:25:12;100790.53;;;14.18;100.00
4836;BME280;66719;51.226;6.902;2023-05-21T06:27:39;100794.88;;;14.19;100.00
4836;BME280;66719;51.226;6.902;2023-05-21T06:30:06;100800.94;;;14.21;100.00
4836;BME280;66719;51.226;6.902;2023-05-21T06:32:33;100795.63;;;14.23;100.00
4836;BME280;66719;51.226;6.902;2023-05-21T06:35:00;100798.25;;;14.23;100.00
4836;BME280;66719;51.226;6.902;2023-05-21T06:37:27;100796.34;;;14.28;100.00
4836;BME280;66719;51.226;6.902;2023-05-21T06:39:53;100792.75;;;14.30;100.00
4836;BME280;66719;51.226;6.902;2023-05-21T06:42:20;100787.47;;;14.30;100.00
4836;BME280;66719;51.226;6.902;2023-05-21T06:44:46;100794.53;;;14.30;100.00
4836;BME280;66719;51.226;6.902;2023-05-21T06:47:13;100789.97;;;14.35;100.00
4836;BME280;66719;51.226;6.902;2023-05-21T06:49:42;100794.28;;;14.37;100.00
4836;BME280;66719;51.226;6.902;2023-05-21T06:52:09;100801.31;;;14.37;100.00
4836;BME280;66719;51.226;6.902;2023-05-21T06:54:36;100800.34;;;14.39;100.00
4836;BME280;66719;51.226;6.902;2023-05-21T06:57:05;100806.25;;;14.48;100.00
4836;BME280;66719;51.226;6.902;2023-05-21T06:59:33;100803.44;;;14.54;100.00
4836;BME280;66719;51.226;6.902;2023-05-21T07:02:00;100796.19;;;14.59;100.00
4836;BME280;66719;51.226;6.902;2023-05-21T07:04:29;100805.63;;;14.66;100.00
4836;BME280;66719;51.226;6.902;2023-05-21T07:06:56;100799.34;;;14.70;100.00
4836;BME280;66719;51.226;6.902;2023-05-21T07:09:23;100803.91;;;14.65;100.00
4836;BME280;66719;51.226;6.902;2023-05-21T07:11:49;100802.91;;;14.69;100.00
4836;BME280;66719;51.226;6.902;2023-05-21T07:14:18;100800.97;;;14.74;100.00
4836;BME280;66719;51.226;6.902;2023-05-21T07:16:44;100807.00;;;14.78;100.00
4836;BME280;66719;51.226;6.902;2023-05-21T07:19:11;100804.19;;;14.82;100.00
4836;BME280;66719;51.226;6.902;2023-05-21T07:21:38;100814.00;;;14.79;100.00
4836;BME280;66719;51.226;6.902;2023-05-21T07:24:04;100809.47;;;14.82;100.00
4836;BME280;66719;51.226;6.902;2023-05-21T07:26:31;100811.13;;;14.85;100.00
4836;BME280;66719;51.226;6.902;2023-05-21T07:28:58;100812.81;;;14.87;100.00
4836;BME280;66719;51.226;6.902;2023-05-21T07:31:24;100812.69;;;14.90;100.00
4836;BME280;66719;51.226;6.902;2023-05-21T07:33:51;100815.94;;;14.98;100.00
4836;BME280;66719;51.226;6.902;2023-05-21T07:36:17;100806.09;;;15.04;100.00
4836;BME280;66719;51.226;6.902;2023-05-21T07:38:44;100806.63;;;15.13;100.00
4836;BME280;66719;51.226;6.902;2023-05-21T07:41:10;100807.28;;;15.18;100.00
4836;BME280;66719;51.226;6.902;2023-05-21T07:43:37;100805.38;;;15.23;100.00
4836;BME280;66719;51.226;6.902;2023-05-21T07:46:04;100806.03;;;15.28;100.00
4836;BME280;66719;51.226;6.902;2023-05-21T07:48:30;100807.66;;;15.33;100.00
4836;BME280;66719;51.226;6.902;2023-05-21T07:51:00;100803.81;;;15.41;100.00
4836;BME280;66719;51.226;6.902;2023-05-21T07:53:26;100809.63;;;15.51;100.00
4836;BME280;66719;51.226;6.902;2023-05-21T07:55:54;100803.09;;;15.61;100.00
4836;BME280;66719;51.226;6.902;2023-05-21T07:58:20;100809.88;;;15.68;100.00
4836;BME280;66719;51.226;6.902;2023-05-21T08:00:48;100795.69;;;15.71;100.00
4836;BME280;66719;51.226;6.902;2023-05-21T08:03:16;100805.09;;;15.78;100.00
4836;BME280;66719;51.226;6.902;2023-05-21T08:05:45;100803.09;;;15.85;100.00
4836;BME280;66719;51.226;6.902;2023-05-21T08:08:15;100808.13;;;15.91;100.00
4836;BME280;66719;51.226;6.902;2023-05-21T08:10:43;100810.44;;;15.98;100.00
4836;BME280;66719;51.226;6.902;2023-05-21T08:13:14;100804.94;;;16.04;100.00
4836;BME280;66719;51.226;6.902;2023-05-21T08:15:41;100803.06;;;16.06;100.00
4836;BME280;66719;51.226;6.902;2023-05-21T08:18:08;100808.91;;;16.15;100.00
4836;BME280;66719;51.226;6.902;2023-05-21T08:20:35;100808.00;;;16.16;100.00
4836;BME280;66719;51.226;6.902;2023-05-21T08:23:02;100804.38;;;16.18;100.00
4836;BME280;66719;51.226;6.902;2023-05-21T08:25:29;100812.03;;;16.24;100.00
4836;BME280;66719;51.226;6.902;2023-05-21T08:27:55;100818.94;;;16.28;100.00
4836;BME280;66719;51.226;6.902;2023-05-21T08:30:22;100820.72;;;16.28;100.00
4836;BME280;66719;51.226;6.902;2023-05-21T08:32:48;100811.09;;;16.27;100.00
4836;BME280;66719;51.226;6.902;2023-05-21T08:35:15;100810.94;;;16.30;100.00
4836;BME280;66719;51.226;6.902;2023-05-21T08:37:41;100824.22;;;16.28;100.00
4836;BME280;66719;51.226;6.902;2023-05-21T08:40:10;100819.72;;;16.30;100.00
4836;BME280;66719;51.226;6.902;2023-05-21T08:42:47;100820.34;;;16.37;100.00
4836;BME280;66719;51.226;6.902;2023-05-21T08:45:20;100814.84;;;16.42;100.00
4836;BME280;66719;51.226;6.902;2023-05-21T08:47:54;100818.81;;;16.53;100.00
4836;BME280;66719;51.226;6.902;2023-05-21T08:50:23;100808.09;;;16.56;100.00
4836;BME280;66719;51.226;6.902;2023-05-21T08:52:51;100819.13;;;16.66;100.00
4836;BME280;66719;51.226;6.902;2023-05-21T08:55:18;100809.19;;;16.73;100.00
4836;BME280;66719;51.226;6.902;2023-05-21T08:57:45;100802.03;;;16.75;100.00
4836;BME280;66719;51.226;6.902;2023-05-21T09:00:11;100794.66;;;16.83;100.00
4836;BME280;66719;51.226;6.902;2023-05-21T09:02:39;100796.09;;;16.90;100.00
4836;BME280;66719;51.226;6.902;2023-05-21T09:05:07;100789.63;;;16.97;100.00
4836;BME280;66719;51.226;6.902;2023-05-21T09:07:42;100785.13;;;16.99;100.00
4836;BME280;66719;51.226;6.902;2023-05-21T09:10:12;100780.53;;;17.03;100.00
4836;BME280;66719;51.226;6.902;2023-05-21T09:12:39;100778.69;;;17.05;100.00
4836;BME280;66719;51.226;6.902;2023-05-21T09:15:06;100778.22;;;17.15;100.00
4836;BME280;66719;51.226;6.902;2023-05-21T09:17:36;100773.44;;;17.23;100.00
4836;BME280;66719;51.226;6.902;2023-05-21T09:22:44;100770.03;;;17.40;100.00
4836;BME280;66719;51.226;6.902;2023-05-21T09:25:14;100760.06;;;17.45;100.00
4836;BME280;66719;51.226;6.902;2023-05-21T09:27:41;100775.59;;;17.53;100.00
4836;BME280;66719;51.226;6.902;2023-05-21T09:30:10;100775.31;;;17.59;100.00
4836;BME280;66719;51.226;6.902;2023-05-21T09:32:38;100763.31;;;17.71;100.00
4836;BME280;66719;51.226;6.902;2023-05-21T09:35:14;100766.25;;;17.65;100.00
4836;BME280;66719;51.226;6.902;2023-05-21T09:37:43;100765.97;;;17.71;100.00
4836;BME280;66719;51.226;6.902;2023-05-21T09:40:15;100765.91;;;17.72;100.00
4836;BME280;66719;51.226;6.902;2023-05-21T09:42:47;100768.31;;;17.77;100.00
4836;BME280;66719;51.226;6.902;2023-05-21T09:45:18;100764.47;;;17.84;100.00
4836;BME280;66719;51.226;6.902;2023-05-21T09:47:46;100756.28;;;17.89;100.00
4836;BME280;66719;51.226;6.902;2023-05-21T09:50:17;100761.00;;;18.01;100.00
4836;BME280;66719;51.226;6.902;2023-05-21T09:52:45;100758.47;;;17.98;100.00
4836;BME280;66719;51.226;6.902;2023-05-21T09:55:13;100754.50;;;18.06;100.00
4836;BME280;66719;51.226;6.902;2023-05-21T09:57:44;100756.09;;;18.11;100.00
4836;BME280;66719;51.226;6.902;2023-05-21T10:00:22;100759.69;;;18.10;100.00
4836;BME280;66719;51.226;6.902;2023-05-21T10:02:53;100761.47;;;18.09;100.00
4836;BME280;66719;51.226;6.902;2023-05-21T10:05:20;100754.31;;;18.11;100.00
4836;BME280;66719;51.226;6.902;2023-05-21T10:07:50;100757.97;;;18.08;100.00
4836;BME280;66719;51.226;6.902;2023-05-21T10:10:20;100755.06;;;18.13;100.00
4836;BME280;66719;51.226;6.902;2023-05-21T10:12:54;100760.88;;;18.21;100.00
4836;BME280;66719;51.226;6.902;2023-05-21T10:15:23;100755.47;;;18.23;100.00
4836;BME280;66719;51.226;6.902;2023-05-21T10:17:51;100749.09;;;18.27;100.00
4836;BME280;66719;51.226;6.902;2023-05-21T10:20:18;100755.19;;;18.29;100.00
4836;BME280;66719;51.226;6.902;2023-05-21T10:22:46;100743.72;;;18.28;100.00
4836;BME280;66719;51.226;6.902;2023-05-21T10:25:13;100751.44;;;18.33;100.00
4836;BME280;66719;51.226;6.902;2023-05-21T10:27:41;100745.44;;;18.47;100.00
4836;BME280;66719;51.226;6.902;2023-05-21T10:30:08;100751.22;;;18.55;100.00
4836;BME280;66719;51.226;6.902;2023-05-21T10:32:35;100733.09;;;18.63;100.00
4836;BME280;66719;51.226;6.902;2023-05-21T10:35:02;100742.63;;;18.67;100.00
4836;BME280;66719;51.226;6.902;2023-05-21T10:37:28;100728.13;;;18.74;100.00
4836;BME280;66719;51.226;6.902;2023-05-21T10:39:55;100726.50;;;18.72;100.00
4836;BME280;66719;51.226;6.902;2023-05-21T10:48:13;100727.41;;;18.88;100.00
4836;BME280;66719;51.226;6.902;2023-05-21T10:50:52;100720.91;;;18.93;100.00
4836;BME280;66719;51.226;6.902;2023-05-21T10:53:53;100711.53;;;19.04;100.00
4836;BME280;66719;51.226;6.902;2023-05-21T11:01:36;100708.03;;;19.35;100.00
4836;BME280;66719;51.226;6.902;2023-05-21T11:04:04;100708.06;;;19.51;100.00
4836;BME280;66719;51.226;6.902;2023-05-21T11:06:31;100701.03;;;19.49;100.00
4836;BME280;66719;51.226;6.902;2023-05-21T11:09:16;100699.78;;;19.57;100.00
4836;BME280;66719;51.226;6.902;2023-05-21T11:11:50;100698.88;;;19.72;100.00
4836;BME280;66719;51.226;6.902;2023-05-21T11:14:30;100703.94;;;19.92;100.00
4836;BME280;66719;51.226;6.902;2023-05-21T11:16:58;100698.97;;;19.86;100.00
4836;BME280;66719;51.226;6.902;2023-05-21T11:19:42;100698.88;;;19.88;100.00
4836;BME280;66719;51.226;6.902;2023-05-21T11:24:37;100706.50;;;19.94;100.00
4836;BME280;66719;51.226;6.902;2023-05-21T11:27:04;100706.75;;;19.89;100.00
4836;BME280;66719;51.226;6.902;2023-05-21T11:29:41;100691.31;;;19.96;100.00
4836;BME280;66719;51.226;6.902;2023-05-21T11:32:10;100695.25;;;20.04;100.00
4836;BME280;66719;51.226;6.902;2023-05-21T11:34:39;100687.22;;;20.20;100.00
4836;BME280;66719;51.226;6.902;2023-05-21T11:39:46;100698.94;;;20.32;100.00
4836;BME280;66719;51.226;6.902;2023-05-21T11:42:28;100695.72;;;20.27;100.00
4836;BME280;66719;51.226;6.902;2023-05-21T11:44:56;100682.66;;;20.22;100.00
4836;BME280;66719;51.226;6.902;2023-05-21T11:47:24;100691.13;;;20.45;100.00
4836;BME280;66719;51.226;6.902;2023-05-21T11:49:53;100690.84;;;20.64;100.00
4836;BME280;66719;51.226;6.902;2023-05-21T11:52:20;100708.00;;;20.88;100.00
4836;BME280;66719;51.226;6.902;2023-05-21T11:54:53;100700.66;;;21.20;100.00
4836;BME280;66719;51.226;6.902;2023-05-21T11:57:27;100708.28;;;21.40;100.00
4836;BME280;66719;51.226;6.902;2023-05-21T11:59:57;100695.59;;;21.44;100.00
4836;BME280;66719;51.226;6.902;2023-05-21T12:02:26;100689.59;;;21.82;100.00
4836;BME280;66719;51.226;6.902;2023-05-21T12:04:53;100692.06;;;21.97;100.00
4836;BME280;66719;51.226;6.902;2023-05-21T12:07:26;100695.31;;;22.02;100.00
4836;BME280;66719;51.226;6.902;2023-05-21T12:09:57;100700.41;;;22.33;100.00
4836;BME280;66719;51.226;6.902;2023-05-21T12:12:25;100688.59;;;22.62;100.00
4836;BME280;66719;51.226;6.902;2023-05-21T12:15:00;100673.75;;;22.71;100.00
4836;BME280;66719;51.226;6.902;2023-05-21T12:17:27;100684.22;;;22.61;93.15
4836;BME280;66719;51.226;6.902;2023-05-21T12:19:57;100679.88;;;22.86;97.55
4836;BME280;66719;51.226;6.902;2023-05-21T12:22:24;100684.13;;;23.01;94.44
4836;BME280;66719;51.226;6.902;2023-05-21T12:24:53;100674.19;;;23.03;91.90
4836;BME280;66719;51.226;6.902;2023-05-21T12:27:20;100664.88;;;23.45;95.11
4836;BME280;66719;51.226;6.902;2023-05-21T12:29:50;100683.06;;;23.77;92.83
4836;BME280;66719;51.226;6.902;2023-05-21T12:32:19;100673.88;;;23.81;90.68
4836;BME280;66719;51.226;6.902;2023-05-21T12:34:50;100666.69;;;23.81;92.26
4836;BME280;66719;51.226;6.902;2023-05-21T12:37:26;100672.00;;;24.05;93.70
4836;BME280;66719;51.226;6.902;2023-05-21T12:39:54;100671.97;;;24.29;92.03
4836;BME280;66719;51.226;6.902;2023-05-21T12:42:25;100672.00;;;24.40;88.71
4836;BME280;66719;51.226;6.902;2023-05-21T12:44:53;100666.81;;;24.50;89.44
4836;BME280;66719;51.226;6.902;2023-05-21T12:47:22;100670.50;;;24.94;92.22
4836;BME280;66719;51.226;6.902;2023-05-21T12:49:52;100672.22;;;25.06;87.01
4836;BME280;66719;51.226;6.902;2023-05-21T12:52:21;100660.41;;;24.86;81.96
4836;BME280;66719;51.226;6.902;2023-05-21T12:54:52;100664.28;;;24.93;83.86
4836;BME280;66719;51.226;6.902;2023-05-21T12:57:21;100654.16;;;24.74;84.80
4836;BME280;66719;51.226;6.902;2023-05-21T12:59:55;100655.75;;;24.55;82.87
4836;BME280;66719;51.226;6.902;2023-05-21T13:02:24;100659.53;;;24.74;85.13
4836;BME280;66719;51.226;6.902;2023-05-21T13:04:58;100664.66;;;24.31;82.08
4836;BME280;66719;51.226;6.902;2023-05-21T13:07:27;100659.78;;;24.25;85.30
4836;BME280;66719;51.226;6.902;2023-05-21T13:09:54;100662.41;;;24.49;84.29
4836;BME280;66719;51.226;6.902;2023-05-21T13:12:24;100655.88;;;24.87;86.83
4836;BME280;66719;51.226;6.902;2023-05-21T13:14:52;100644.91;;;24.56;82.63